createdAt,value
2018-08-12T00:02:10.219Z,3.47
2018-08-12T00:04:38.706Z,3.03
2018-08-12T00:07:07.380Z,2.77
2018-08-12T00:09:35.826Z,3.53
2018-08-12T00:12:05.105Z,3.03
2018-08-12T00:14:33.582Z,2.03
2018-08-12T00:17:01.979Z,2.40
2018-08-12T00:19:30.530Z,3.90
2018-08-12T00:21:59.013Z,2.60
2018-08-12T00:24:28.358Z,3.83
2018-08-12T00:26:56.761Z,2.40
2018-08-12T00:29:25.219Z,3.67
2018-08-12T00:31:53.659Z,3.67
2018-08-12T00:34:22.184Z,4.30
2018-08-12T00:36:50.606Z,2.40
2018-08-12T00:39:19.086Z,2.30
2018-08-12T00:41:47.576Z,5.00
2018-08-12T00:44:16.052Z,2.53
2018-08-12T00:46:44.610Z,2.50
2018-08-12T00:49:13.048Z,3.50
2018-08-12T00:51:41.795Z,2.20
2018-08-12T00:54:10.247Z,3.47
2018-08-12T00:56:38.696Z,4.87
2018-08-12T00:59:07.392Z,3.77
2018-08-12T01:01:35.840Z,3.27
2018-08-12T01:04:04.299Z,3.70
2018-08-12T01:06:33.091Z,3.40
2018-08-12T01:09:01.550Z,7.70
2018-08-12T01:11:30.026Z,3.03
2018-08-12T01:13:58.534Z,3.50
2018-08-12T01:16:26.991Z,3.83
2018-08-12T01:18:55.516Z,3.47
2018-08-12T01:21:24.009Z,4.97
2018-08-12T01:23:52.513Z,2.70
2018-08-12T01:26:21.455Z,2.40
2018-08-12T01:28:49.912Z,3.33
2018-08-12T01:31:18.352Z,3.50
2018-08-12T01:33:46.828Z,5.15
2018-08-12T01:36:15.267Z,4.30
2018-08-12T01:38:43.997Z,6.85
2018-08-12T01:41:12.465Z,2.42
2018-08-12T01:43:40.981Z,3.80
2018-08-12T01:46:09.461Z,2.58
2018-08-12T01:48:37.896Z,3.80
2018-08-12T01:51:06.407Z,3.13
2018-08-12T01:53:34.888Z,2.23
2018-08-12T01:56:03.402Z,4.13
2018-08-12T01:58:31.937Z,5.10
2018-08-12T02:01:00.424Z,2.30
2018-08-12T02:03:28.908Z,2.73
2018-08-12T02:05:57.323Z,3.33
2018-08-12T02:08:25.779Z,2.53
2018-08-12T02:10:54.225Z,3.80
2018-08-12T02:13:22.669Z,4.43
2018-08-12T02:15:51.100Z,2.70
2018-08-12T02:18:19.588Z,1.83
2018-08-12T02:20:48.091Z,4.10
2018-08-12T02:23:16.572Z,1.90
2018-08-12T02:25:45.036Z,1.70
2018-08-12T02:28:13.558Z,3.80
2018-08-12T02:30:41.970Z,2.40
2018-08-12T02:33:10.449Z,2.00
2018-08-12T02:35:38.899Z,2.50
2018-08-12T02:38:07.418Z,6.20
2018-08-12T02:40:35.882Z,5.63
2018-08-12T02:43:04.377Z,1.70
2018-08-12T02:45:32.866Z,3.93
2018-08-12T02:48:01.317Z,3.87
2018-08-12T02:50:29.946Z,2.67
2018-08-12T02:52:58.624Z,2.53
2018-08-12T02:55:27.140Z,2.50
2018-08-12T02:57:55.552Z,2.35
2018-08-12T03:00:24.030Z,3.67
2018-08-12T03:02:52.501Z,2.40
2018-08-12T03:05:21.560Z,2.10
2018-08-12T03:07:50.037Z,3.20
2018-08-12T03:10:18.533Z,2.70
2018-08-12T03:12:47.000Z,2.40
2018-08-12T03:15:15.625Z,3.33
2018-08-12T03:17:44.117Z,2.30
2018-08-12T03:20:12.775Z,2.77
2018-08-12T03:22:41.253Z,1.83
2018-08-12T03:25:10.901Z,2.93
2018-08-12T03:27:39.884Z,3.67
2018-08-12T03:30:09.852Z,4.37
2018-08-12T03:32:38.304Z,2.43
2018-08-12T03:35:06.779Z,2.27
2018-08-12T03:37:35.239Z,4.20
2018-08-12T03:40:03.731Z,3.77
2018-08-12T03:42:32.195Z,4.10
2018-08-12T03:45:00.695Z,6.00
2018-08-12T03:47:29.140Z,4.62
2018-08-12T03:49:57.835Z,4.20
2018-08-12T03:52:26.620Z,3.03
2018-08-12T03:54:55.472Z,6.70
2018-08-12T03:57:24.297Z,3.40
2018-08-12T03:59:52.708Z,3.93
2018-08-12T04:02:21.169Z,3.60
2018-08-12T04:04:49.653Z,8.97
2018-08-12T04:07:18.091Z,5.93
2018-08-12T04:09:46.915Z,4.03
2018-08-12T04:12:15.375Z,4.67
2018-08-12T04:14:43.798Z,2.60
2018-08-12T04:17:12.356Z,3.55
2018-08-12T04:19:40.788Z,3.57
2018-08-12T04:22:09.250Z,4.70
2018-08-12T04:24:37.694Z,4.70
2018-08-12T04:27:06.638Z,3.98
2018-08-12T04:29:35.115Z,4.20
2018-08-12T04:32:03.587Z,1.70
2018-08-12T04:34:32.025Z,3.05
2018-08-12T04:37:00.546Z,2.60
2018-08-12T04:39:29.005Z,2.03
2018-08-12T04:41:57.463Z,2.60
2018-08-12T04:44:25.934Z,2.60
2018-08-12T04:46:54.486Z,3.57
2018-08-12T04:49:22.976Z,3.65
2018-08-12T04:51:51.523Z,2.53
2018-08-12T04:54:19.986Z,6.90
2018-08-12T04:56:48.590Z,2.30
2018-08-12T04:59:17.229Z,4.87
2018-08-12T05:01:45.670Z,2.70
2018-08-12T05:04:14.124Z,3.57
2018-08-12T05:06:42.582Z,2.73
2018-08-12T05:09:12.184Z,4.00
2018-08-12T05:11:41.156Z,2.58
2018-08-12T05:14:09.600Z,3.40
2018-08-12T05:16:38.089Z,4.17
2018-08-12T05:19:06.638Z,4.65
2018-08-12T05:21:35.187Z,2.40
2018-08-12T05:24:03.966Z,2.97
2018-08-12T05:26:32.412Z,2.30
2018-08-12T05:29:00.844Z,3.37
2018-08-12T05:31:29.862Z,2.07
2018-08-12T05:33:58.567Z,1.97
2018-08-12T05:36:27.047Z,2.97
2018-08-12T05:38:55.551Z,4.60
2018-08-12T05:41:24.378Z,4.23
2018-08-12T05:43:52.860Z,4.55
2018-08-12T05:46:21.388Z,2.45
2018-08-12T05:48:50.212Z,4.37
2018-08-12T05:51:18.766Z,3.67
2018-08-12T05:53:47.251Z,4.80
2018-08-12T05:56:15.772Z,3.87
2018-08-12T05:58:44.260Z,4.30
2018-08-12T06:01:12.699Z,4.10
2018-08-12T06:03:41.128Z,4.40
2018-08-12T06:06:09.594Z,3.50
2018-08-12T06:08:38.421Z,5.70
2018-08-12T06:11:07.105Z,6.37
2018-08-12T06:13:35.570Z,8.73
2018-08-12T06:16:04.763Z,7.70
2018-08-12T06:18:33.207Z,12.43
2018-08-12T06:21:01.687Z,8.50
2018-08-12T06:23:30.167Z,8.20
2018-08-12T06:25:58.653Z,11.67
2018-08-12T06:28:27.216Z,9.40
2018-08-12T06:30:55.683Z,9.37
2018-08-12T06:33:24.185Z,12.00
2018-08-12T06:35:52.666Z,11.10
2018-08-12T06:38:21.240Z,9.07
2018-08-12T06:40:49.727Z,7.23
2018-08-12T06:43:18.914Z,4.77
2018-08-12T06:45:47.355Z,5.60
2018-08-12T06:48:15.993Z,2.30
2018-08-12T06:50:44.456Z,1.53
2018-08-12T06:53:12.937Z,1.57
2018-08-12T06:55:41.501Z,3.30
2018-08-12T06:58:09.958Z,4.23
2018-08-12T07:00:38.448Z,1.57
2018-08-12T07:03:07.706Z,2.23
2018-08-12T07:05:36.186Z,1.80
2018-08-12T07:08:04.712Z,1.30
2018-08-12T07:10:33.359Z,1.63
2018-08-12T07:13:01.863Z,1.17
2018-08-12T07:15:30.300Z,2.50
2018-08-12T07:17:58.719Z,2.77
2018-08-12T07:20:27.161Z,1.60
2018-08-12T07:22:55.886Z,2.50
2018-08-12T07:25:24.574Z,2.00
2018-08-12T07:27:53.003Z,3.93
2018-08-12T07:30:21.545Z,2.00
2018-08-12T07:32:50.135Z,1.70
2018-08-12T07:35:18.591Z,1.63
2018-08-12T07:37:47.088Z,2.10
2018-08-12T07:40:17.819Z,1.22
2018-08-12T07:42:47.168Z,2.00
2018-08-12T07:45:15.682Z,1.45
2018-08-12T07:47:44.714Z,2.70
2018-08-12T07:50:13.519Z,1.77
2018-08-12T07:52:43.694Z,2.30
2018-08-12T07:55:13.920Z,1.87
2018-08-12T07:57:43.464Z,2.37
2018-08-12T08:00:17.572Z,1.57
2018-08-12T08:02:46.308Z,3.83
2018-08-12T08:05:14.876Z,0.90
2018-08-12T08:07:43.555Z,1.47
2018-08-12T08:10:14.346Z,2.93
2018-08-12T08:12:42.843Z,1.20
2018-08-12T08:15:17.071Z,2.10
2018-08-12T08:17:46.132Z,1.37
2018-08-12T08:20:15.288Z,1.77
2018-08-12T08:22:44.302Z,1.82
2018-08-12T08:25:13.323Z,1.60
2018-08-12T08:27:41.972Z,1.00
2018-08-12T08:30:13.557Z,1.23
2018-08-12T08:32:42.556Z,0.93
2018-08-12T08:35:12.364Z,1.23
2018-08-12T08:37:41.352Z,1.12
2018-08-12T08:40:14.322Z,2.00
2018-08-12T08:43:45.324Z,0.97
2018-08-12T08:46:13.793Z,1.40
2018-08-12T08:48:42.239Z,1.10
2018-08-12T08:51:10.654Z,1.27
2018-08-12T08:53:39.165Z,1.57
2018-08-12T08:56:07.840Z,1.20
2018-08-12T08:58:36.307Z,1.60
2018-08-12T09:01:04.804Z,1.30
2018-08-12T09:03:33.244Z,1.00
2018-08-12T09:06:01.754Z,1.00
2018-08-12T09:08:30.551Z,1.13
2018-08-12T09:11:29.116Z,1.77
2018-08-12T09:13:57.669Z,1.20
2018-08-12T09:16:26.127Z,0.90
2018-08-12T09:18:54.588Z,2.00
2018-08-12T09:21:23.028Z,2.60
2018-08-12T09:23:51.515Z,1.17
2018-08-12T09:26:19.931Z,1.17
2018-08-12T09:28:48.345Z,1.00
2018-08-12T09:31:16.814Z,1.37
2018-08-12T09:33:45.604Z,1.30
2018-08-12T09:36:14.354Z,1.13
2018-08-12T09:38:42.845Z,1.37
2018-08-12T09:41:11.316Z,11.33
2018-08-12T09:43:39.785Z,1.12
2018-08-12T09:46:08.670Z,1.17
2018-08-12T09:48:37.832Z,1.30
2018-08-12T09:51:06.275Z,1.60
2018-08-12T09:53:34.778Z,1.60
2018-08-12T09:56:03.185Z,0.80
2018-08-12T09:58:31.742Z,0.90
2018-08-12T10:01:00.185Z,1.02
2018-08-12T10:03:28.673Z,1.00
2018-08-12T10:05:57.186Z,1.10
2018-08-12T10:08:25.625Z,1.47
2018-08-12T10:10:54.114Z,4.53
2018-08-12T10:13:22.611Z,1.07
2018-08-12T10:15:51.212Z,0.80
2018-08-12T10:18:19.664Z,2.40
2018-08-12T10:20:48.187Z,1.10
2018-08-12T10:23:16.655Z,1.10
2018-08-12T10:25:45.364Z,1.20
2018-08-12T10:28:13.915Z,1.00
2018-08-12T10:30:43.053Z,2.00
2018-08-12T10:33:11.544Z,1.40
2018-08-12T10:35:40.116Z,1.67
2018-08-12T10:38:08.567Z,2.03
2018-08-12T10:40:36.987Z,0.87
2018-08-12T10:43:05.518Z,1.37
2018-08-12T10:45:33.953Z,1.80
2018-08-12T10:48:02.433Z,1.20
2018-08-12T10:50:31.254Z,0.90
2018-08-12T10:52:59.957Z,1.73
2018-08-12T10:55:28.602Z,1.00
2018-08-12T10:57:57.106Z,1.17
2018-08-12T11:00:27.940Z,1.10
2018-08-12T11:02:56.524Z,1.20
2018-08-12T11:05:25.015Z,1.67
2018-08-12T11:07:55.977Z,1.60
2018-08-12T11:10:24.969Z,4.30
2018-08-12T11:12:53.439Z,2.00
2018-08-12T11:15:22.193Z,2.03
2018-08-12T11:17:50.675Z,1.93
2018-08-12T11:20:19.499Z,3.60
2018-08-12T11:22:48.870Z,1.30
2018-08-12T11:25:17.388Z,2.97
2018-08-12T11:27:45.962Z,1.33
2018-08-12T11:30:16.321Z,3.80
2018-08-12T11:32:44.884Z,1.77
2018-08-12T11:35:15.125Z,3.20
2018-08-12T11:37:44.331Z,1.20
2018-08-12T11:40:14.077Z,1.30
2018-08-12T11:42:42.894Z,2.43
2018-08-12T11:45:14.303Z,1.13
2018-08-12T11:47:43.603Z,1.07
2018-08-12T11:50:12.780Z,0.93
2018-08-12T11:52:42.348Z,1.20
2018-08-12T11:55:12.515Z,1.33
2018-08-12T11:57:41.516Z,1.33
2018-08-12T12:00:13.275Z,1.87
2018-08-12T12:02:41.796Z,1.57
2018-08-12T12:05:12.473Z,1.82
2018-08-12T12:07:41.425Z,1.80
2018-08-12T12:10:12.814Z,1.85
2018-08-12T12:12:42.894Z,1.00
2018-08-12T12:15:12.592Z,1.47
2018-08-12T12:17:41.404Z,1.10
2018-08-12T12:20:11.279Z,2.27
2018-08-12T12:22:41.501Z,1.00
2018-08-12T12:25:11.824Z,1.10
2018-08-12T12:27:40.546Z,1.37
2018-08-12T12:30:11.424Z,0.83
2018-08-12T12:32:39.918Z,1.00
2018-08-12T12:35:08.547Z,0.80
2018-08-12T12:37:37.369Z,0.90
2018-08-12T12:40:07.596Z,1.43
2018-08-12T12:42:36.582Z,1.53
2018-08-12T12:45:06.894Z,1.23
2018-08-12T12:47:35.682Z,1.30
2018-08-12T12:50:05.800Z,1.65
2018-08-12T12:52:34.302Z,1.20
2018-08-12T12:55:03.099Z,1.30
2018-08-12T12:57:31.848Z,1.00
2018-08-12T13:00:00.768Z,0.82
2018-08-12T13:02:29.231Z,1.67
2018-08-12T13:04:57.747Z,1.33
2018-08-12T13:07:26.199Z,3.77
2018-08-12T13:09:54.766Z,1.63
2018-08-12T13:12:23.662Z,1.20
2018-08-12T13:14:52.083Z,1.00
2018-08-12T13:17:20.647Z,1.40
2018-08-12T13:19:49.103Z,1.10
2018-08-12T13:22:17.567Z,2.02
2018-08-12T13:24:46.448Z,1.60
2018-08-12T13:27:14.860Z,1.40
2018-08-12T13:29:43.266Z,1.03
2018-08-12T13:32:12.068Z,1.47
2018-08-12T13:34:40.555Z,0.97
2018-08-12T13:37:09.015Z,1.00
2018-08-12T13:39:37.446Z,1.50
2018-08-12T13:42:05.915Z,1.83
2018-08-12T13:44:34.380Z,1.40
2018-08-12T13:47:02.842Z,1.20
2018-08-12T13:49:31.272Z,0.90
2018-08-12T13:51:59.992Z,1.20
2018-08-12T13:54:28.715Z,0.90
2018-08-12T13:56:57.412Z,0.90
2018-08-12T13:59:25.816Z,1.13
2018-08-12T14:01:54.353Z,1.20
2018-08-12T14:04:22.807Z,0.97
2018-08-12T14:06:51.482Z,1.57
2018-08-12T14:09:19.992Z,3.47
2018-08-12T14:11:48.416Z,1.50
2018-08-12T14:14:16.951Z,0.93
2018-08-12T14:16:45.398Z,1.00
2018-08-12T14:19:14.039Z,1.63
2018-08-12T14:21:42.532Z,1.13
2018-08-12T14:24:11.447Z,1.10
2018-08-12T14:26:39.955Z,1.40
2018-08-12T14:29:08.375Z,1.00
2018-08-12T14:31:36.871Z,1.30
2018-08-12T14:34:05.545Z,1.10
2018-08-12T14:36:34.052Z,1.43
2018-08-12T14:39:02.580Z,1.30
2018-08-12T14:41:31.049Z,2.27
2018-08-12T14:43:59.491Z,1.00
2018-08-12T14:46:27.961Z,1.00
2018-08-12T14:48:56.512Z,1.50
2018-08-12T14:51:25.184Z,1.27
2018-08-12T14:53:53.628Z,1.53
2018-08-12T14:56:22.282Z,1.65
2018-08-12T14:58:50.755Z,1.10
2018-08-12T15:01:19.211Z,1.00
2018-08-12T15:03:47.706Z,1.20
2018-08-12T15:06:16.187Z,1.63
2018-08-12T15:08:44.691Z,1.00
2018-08-12T15:11:13.161Z,0.90
2018-08-12T15:13:41.644Z,1.40
2018-08-12T15:16:10.132Z,1.57
2018-08-12T15:18:38.605Z,1.40
2018-08-12T15:21:07.372Z,4.20
2018-08-12T15:23:35.899Z,1.20
2018-08-12T15:26:04.374Z,1.87
2018-08-12T15:28:32.933Z,1.45
2018-08-12T15:31:01.408Z,1.07
2018-08-12T15:33:30.159Z,1.00
2018-08-12T15:35:58.779Z,1.20
2018-08-12T15:38:27.232Z,1.00
2018-08-12T15:40:55.743Z,1.27
2018-08-12T15:43:24.237Z,1.40
2018-08-12T15:45:52.707Z,1.87
2018-08-12T15:48:21.375Z,1.50
2018-08-12T15:50:49.814Z,1.45
2018-08-12T15:53:18.389Z,1.40
2018-08-12T15:55:47.103Z,1.40
2018-08-12T15:58:15.561Z,1.70
2018-08-12T16:00:44.048Z,0.93
2018-08-12T16:03:12.517Z,1.40
2018-08-12T16:05:41.047Z,1.10
2018-08-12T16:08:09.551Z,1.10
2018-08-12T16:10:37.993Z,1.30
2018-08-12T16:13:06.619Z,1.07
2018-08-12T16:15:35.379Z,1.20
2018-08-12T16:18:04.138Z,1.77
2018-08-12T16:20:32.714Z,1.13
2018-08-12T16:23:01.248Z,2.53
2018-08-12T16:25:29.940Z,3.75
2018-08-12T16:27:58.901Z,1.20
2018-08-12T16:30:27.424Z,1.63
2018-08-12T16:32:56.403Z,1.37
2018-08-12T16:35:24.905Z,1.20
2018-08-12T16:37:54.087Z,1.87
2018-08-12T16:40:22.579Z,1.17
2018-08-12T16:42:51.736Z,1.27
2018-08-12T16:45:21.063Z,1.10
2018-08-12T16:47:49.850Z,1.27
2018-08-12T16:50:18.624Z,1.40
2018-08-12T16:52:47.077Z,1.57
2018-08-12T16:55:17.261Z,3.10
2018-08-12T16:57:46.751Z,1.40
2018-08-12T17:00:19.304Z,1.97
2018-08-12T17:02:48.144Z,1.30
2018-08-12T17:05:18.037Z,1.10
2018-08-12T17:07:46.839Z,2.00
2018-08-12T17:10:16.677Z,3.43
2018-08-12T17:12:45.483Z,0.97
2018-08-12T17:15:16.219Z,1.63
2018-08-12T17:17:44.731Z,1.20
2018-08-12T17:20:15.171Z,1.40
2018-08-12T17:22:44.666Z,1.30
2018-08-12T17:25:13.143Z,1.50
2018-08-12T17:27:41.634Z,1.50
2018-08-12T17:30:11.492Z,1.20
2018-08-12T17:32:40.001Z,1.57
2018-08-12T17:35:09.477Z,1.40
2018-08-12T17:37:38.555Z,1.23
2018-08-12T17:40:09.064Z,1.47
2018-08-12T17:42:37.546Z,1.70
2018-08-12T17:45:07.077Z,1.50
2018-08-12T17:47:35.761Z,1.70
2018-08-12T17:50:05.176Z,2.30
2018-08-12T17:52:33.659Z,2.63
2018-08-12T17:55:02.216Z,2.33
2018-08-12T17:57:31.218Z,1.90
2018-08-12T17:59:59.928Z,1.83
2018-08-12T18:02:28.365Z,1.27
2018-08-12T18:04:57.004Z,1.20
2018-08-12T18:07:25.482Z,1.87
2018-08-12T18:09:53.910Z,3.15
2018-08-12T18:12:22.378Z,2.20
2018-08-12T18:14:51.098Z,2.20
2018-08-12T18:17:19.773Z,1.60
2018-08-12T18:19:48.248Z,2.58
2018-08-12T18:22:16.759Z,1.93
2018-08-12T18:24:45.311Z,2.20
2018-08-12T18:27:14.347Z,1.93
2018-08-12T18:29:42.816Z,4.03
2018-08-12T18:32:11.288Z,2.40
2018-08-12T18:34:39.773Z,1.93
2018-08-12T18:37:08.216Z,2.03
2018-08-12T18:39:36.710Z,4.33
2018-08-12T18:42:05.148Z,2.77
2018-08-12T18:44:33.928Z,2.33
2018-08-12T18:47:02.455Z,2.20
2018-08-12T18:49:45.359Z,5.10
2018-08-12T18:52:14.350Z,2.57
2018-08-12T18:54:42.906Z,2.97
2018-08-12T18:57:11.344Z,3.80
2018-08-12T18:59:40.083Z,1.87
2018-08-12T19:02:08.582Z,2.13
2018-08-12T19:04:37.115Z,1.90
2018-08-12T19:07:05.969Z,6.20
2018-08-12T19:09:34.407Z,3.77
2018-08-12T19:12:03.556Z,2.55
2018-08-12T19:14:32.136Z,3.73
2018-08-12T19:17:00.720Z,2.12
2018-08-12T19:19:29.467Z,3.13
2018-08-12T19:21:58.206Z,2.00
2018-08-12T19:24:26.672Z,4.53
2018-08-12T19:26:55.306Z,2.17
2018-08-12T19:29:23.766Z,3.47
2018-08-12T19:31:52.211Z,3.20
2018-08-12T19:34:20.653Z,4.80
2018-08-12T19:36:49.292Z,3.10
2018-08-12T19:39:18.207Z,2.12
2018-08-12T19:41:46.666Z,2.97
2018-08-12T19:44:15.128Z,3.80
2018-08-12T19:46:43.586Z,3.23
2018-08-12T19:49:12.020Z,5.10
2018-08-12T19:51:40.439Z,3.27
2018-08-12T19:54:09.105Z,4.35
2018-08-12T19:56:37.583Z,2.57
2018-08-12T19:59:06.013Z,3.17
2018-08-12T20:01:34.479Z,5.47
2018-08-12T20:04:02.944Z,3.47
2018-08-12T20:06:31.438Z,4.65
2018-08-12T20:08:59.914Z,3.80
2018-08-12T20:11:28.392Z,4.77
2018-08-12T20:13:57.078Z,4.77
2018-08-12T20:16:25.525Z,5.22
2018-08-12T20:18:54.979Z,4.03
2018-08-12T20:21:23.437Z,3.42
2018-08-12T20:23:51.890Z,3.17
2018-08-12T20:26:20.399Z,4.17
2018-08-12T20:28:48.904Z,2.60
2018-08-12T20:31:17.483Z,2.00
2018-08-12T20:33:45.900Z,3.60
2018-08-12T20:36:14.955Z,7.03
2018-08-12T20:38:43.443Z,3.57
2018-08-12T20:41:11.857Z,2.72
2018-08-12T20:43:40.407Z,2.70
2018-08-12T20:46:09.022Z,2.20
2018-08-12T20:48:37.563Z,3.07
2018-08-12T20:51:06.247Z,2.92
2018-08-12T20:53:34.814Z,4.27
2018-08-12T20:56:03.383Z,3.40
2018-08-12T20:58:31.816Z,3.13
2018-08-12T21:01:00.258Z,4.20
2018-08-12T21:03:28.747Z,3.43
2018-08-12T21:05:57.183Z,3.13
2018-08-12T21:08:25.667Z,2.40
2018-08-12T21:10:54.099Z,3.13
2018-08-12T21:13:22.567Z,6.77
2018-08-12T21:15:51.283Z,4.17
2018-08-12T21:18:19.772Z,2.70
2018-08-12T21:20:48.214Z,3.10
2018-08-12T21:23:16.900Z,2.83
2018-08-12T21:25:45.311Z,3.13
2018-08-12T21:28:13.828Z,2.87
2018-08-12T21:30:42.264Z,3.60
2018-08-12T21:33:10.740Z,3.08
2018-08-12T21:35:39.188Z,2.57
2018-08-12T21:38:07.642Z,5.50
2018-08-12T21:40:36.095Z,3.75
2018-08-12T21:43:04.563Z,4.20
2018-08-12T21:45:33.023Z,2.83
2018-08-12T21:48:01.456Z,3.23
2018-08-12T21:50:29.950Z,3.10
2018-08-12T21:52:58.395Z,3.92
2018-08-12T21:55:26.881Z,3.83
2018-08-12T21:57:55.379Z,3.00
2018-08-12T22:00:23.978Z,2.55
2018-08-12T22:02:52.444Z,6.30
2018-08-12T22:05:20.895Z,2.50
2018-08-12T22:07:49.327Z,3.07
2018-08-12T22:10:17.828Z,2.65
2018-08-12T22:12:46.390Z,3.07
2018-08-12T22:15:14.912Z,3.60
2018-08-12T22:17:43.416Z,4.70
2018-08-12T22:20:11.860Z,4.93
2018-08-12T22:22:40.330Z,4.10
2018-08-12T22:25:09.683Z,2.95
2018-08-12T22:27:38.111Z,6.70
2018-08-12T22:30:09.566Z,2.70
2018-08-12T22:32:38.007Z,3.17
2018-08-12T22:35:06.567Z,3.77
2018-08-12T22:37:35.038Z,4.00
2018-08-12T22:40:04.151Z,2.23
2018-08-12T22:42:32.609Z,2.42
2018-08-12T22:45:01.035Z,3.60
2018-08-12T22:47:29.529Z,3.73
2018-08-12T22:49:58.075Z,3.97
2018-08-12T22:52:26.508Z,2.60
2018-08-12T22:54:55.009Z,3.13
2018-08-12T22:57:23.463Z,2.60
2018-08-12T22:59:51.943Z,8.30
2018-08-12T23:02:20.473Z,5.28
2018-08-12T23:04:49.175Z,2.97
2018-08-12T23:07:17.663Z,2.87
2018-08-12T23:09:46.118Z,3.10
2018-08-12T23:12:15.388Z,2.33
2018-08-12T23:14:43.821Z,5.23
2018-08-12T23:17:12.249Z,3.60
2018-08-12T23:19:40.663Z,4.73
2018-08-12T23:22:09.113Z,2.92
2018-08-12T23:24:37.601Z,2.20
2018-08-12T23:27:06.024Z,3.10
2018-08-12T23:29:34.455Z,3.10
2018-08-12T23:32:02.879Z,2.93
2018-08-12T23:34:31.314Z,2.90
2018-08-12T23:36:59.884Z,3.47
2018-08-12T23:39:28.468Z,3.50
2018-08-12T23:41:57.329Z,2.47
2018-08-12T23:44:25.770Z,2.30
2018-08-12T23:46:54.272Z,3.63
2018-08-12T23:49:22.813Z,3.27
2018-08-12T23:51:51.269Z,2.93
2018-08-12T23:54:20.364Z,4.33
2018-08-12T23:56:49.055Z,3.50
2018-08-12T23:59:17.512Z,3.27
